<?xml version="1.0" encoding="UTF-8" standalone="no" ?>
<gpx xmlns="http://www.topografix.com/GPX/1/1" xmlns:xsi="http://www.w3.org/2001/XMLSchema-instance" xsi:schemaLocation="http://www.topografix.com/GPX/1/1 http://www.topografix.com/GPX/1/1/gpx.xsd" version="1.1" creator="VisuGPX - https://www.visugpx.com">
  <metadata>
    <name>trip 27/ dottignies,zwevegem,kooigem,courtrai</name>
  </metadata>
  <trk>
    <name><![CDATA[Dottignies - Courtrai - Zwevegem - Kooigem - 28405 - UtagawaVTT.com]]></name>
    <extensions>
      <line xmlns="http://www.topografix.com/GPX/gpx_style/0/2">
        <color>0000FF</color>
        <width>4</width>
      </line>
    </extensions>
    <trkseg>
      <trkpt lat="50.72887" lon="3.30552">
        <ele>30</ele>
        <time>2020-09-02T17:18:44Z</time>
      </trkpt>
      <trkpt lat="50.72876" lon="3.30465">
        <ele>31</ele>
        <time>2020-09-02T17:18:57Z</time>
      </trkpt>
      <trkpt lat="50.72933" lon="3.30441">
        <ele>31</ele>
        <time>2020-09-02T17:19:11Z</time>
      </trkpt>
      <trkpt lat="50.73029" lon="3.30478">
        <ele>28</ele>
        <time>2020-09-02T17:19:34Z</time>
      </trkpt>
      <trkpt lat="50.7317" lon="3.30439">
        <ele>25</ele>
        <time>2020-09-02T17:20:07Z</time>
      </trkpt>
      <trkpt lat="50.73281" lon="3.30424">
        <ele>21</ele>
        <time>2020-09-02T17:20:33Z</time>
      </trkpt>
      <trkpt lat="50.73325" lon="3.30455">
        <ele>21</ele>
        <time>2020-09-02T17:20:45Z</time>
      </trkpt>
      <trkpt lat="50.73379" lon="3.30449">
        <ele>19</ele>
        <time>2020-09-02T17:20:57Z</time>
      </trkpt>
      <trkpt lat="50.73434" lon="3.30418">
        <ele>18</ele>
        <time>2020-09-02T17:21:11Z</time>
      </trkpt>
      <trkpt lat="50.7349" lon="3.30434">
        <ele>18</ele>
        <time>2020-09-02T17:21:24Z</time>
      </trkpt>
      <trkpt lat="50.73549" lon="3.30486">
        <ele>17</ele>
        <time>2020-09-02T17:21:40Z</time>
      </trkpt>
      <trkpt lat="50.73643" lon="3.30597">
        <ele>15</ele>
        <time>2020-09-02T17:22:07Z</time>
      </trkpt>
      <trkpt lat="50.73668" lon="3.30604">
        <ele>15</ele>
        <time>2020-09-02T17:22:13Z</time>
      </trkpt>
      <trkpt lat="50.73698" lon="3.30595">
        <ele>15</ele>
        <time>2020-09-02T17:22:20Z</time>
      </trkpt>
      <trkpt lat="50.73765" lon="3.30564">
        <ele>15</ele>
        <time>2020-09-02T17:22:37Z</time>
      </trkpt>
      <trkpt lat="50.73878" lon="3.30552">
        <ele>14</ele>
        <time>2020-09-02T17:23:03Z</time>
      </trkpt>
      <trkpt lat="50.73914" lon="3.3055">
        <ele>13</ele>
        <time>2020-09-02T17:23:12Z</time>
      </trkpt>
      <trkpt lat="50.74197" lon="3.30449">
        <ele>20</ele>
        <time>2020-09-02T17:24:19Z</time>
      </trkpt>
      <trkpt lat="50.74374" lon="3.30352">
        <ele>23</ele>
        <time>2020-09-02T17:25:03Z</time>
      </trkpt>
      <trkpt lat="50.74547" lon="3.30294">
        <ele>30</ele>
        <time>2020-09-02T17:25:44Z</time>
      </trkpt>
      <trkpt lat="50.7473" lon="3.30241">
        <ele>33</ele>
        <time>2020-09-02T17:26:28Z</time>
      </trkpt>
      <trkpt lat="50.74924" lon="3.30195">
        <ele>38</ele>
        <time>2020-09-02T17:27:14Z</time>
      </trkpt>
      <trkpt lat="50.75332" lon="3.30116">
        <ele>40</ele>
        <time>2020-09-02T17:28:50Z</time>
      </trkpt>
      <trkpt lat="50.75445" lon="3.30098">
        <ele>36</ele>
        <time>2020-09-02T17:29:16Z</time>
      </trkpt>
      <trkpt lat="50.75621" lon="3.30028">
        <ele>33</ele>
        <time>2020-09-02T17:29:59Z</time>
      </trkpt>
      <trkpt lat="50.76002" lon="3.29908">
        <ele>28</ele>
        <time>2020-09-02T17:31:29Z</time>
      </trkpt>
      <trkpt lat="50.76309" lon="3.29547">
        <ele>33</ele>
        <time>2020-09-02T17:32:59Z</time>
      </trkpt>
      <trkpt lat="50.76677" lon="3.29001">
        <ele>27</ele>
        <time>2020-09-02T17:34:57Z</time>
      </trkpt>
      <trkpt lat="50.76693" lon="3.28936">
        <ele>26</ele>
        <time>2020-09-02T17:35:07Z</time>
      </trkpt>
      <trkpt lat="50.76832" lon="3.28815">
        <ele>30</ele>
        <time>2020-09-02T17:35:44Z</time>
      </trkpt>
      <trkpt lat="50.76985" lon="3.2864">
        <ele>32</ele>
        <time>2020-09-02T17:36:28Z</time>
      </trkpt>
      <trkpt lat="50.77108" lon="3.28868">
        <ele>37</ele>
        <time>2020-09-02T17:37:12Z</time>
      </trkpt>
      <trkpt lat="50.77317" lon="3.28627">
        <ele>51</ele>
        <time>2020-09-02T17:38:13Z</time>
      </trkpt>
      <trkpt lat="50.77366" lon="3.28592">
        <ele>52</ele>
        <time>2020-09-02T17:38:25Z</time>
      </trkpt>
      <trkpt lat="50.77361" lon="3.2856">
        <ele>51</ele>
        <time>2020-09-02T17:38:30Z</time>
      </trkpt>
      <trkpt lat="50.77456" lon="3.28501">
        <ele>52</ele>
        <time>2020-09-02T17:38:54Z</time>
      </trkpt>
      <trkpt lat="50.77483" lon="3.28486">
        <ele>53</ele>
        <time>2020-09-02T17:39:01Z</time>
      </trkpt>
      <trkpt lat="50.77512" lon="3.28598">
        <ele>58</ele>
        <time>2020-09-02T17:39:18Z</time>
      </trkpt>
      <trkpt lat="50.77538" lon="3.28586">
        <ele>58</ele>
        <time>2020-09-02T17:39:25Z</time>
      </trkpt>
      <trkpt lat="50.77585" lon="3.28724">
        <ele>60</ele>
        <time>2020-09-02T17:39:48Z</time>
      </trkpt>
      <trkpt lat="50.7756" lon="3.28777">
        <ele>59</ele>
        <time>2020-09-02T17:39:58Z</time>
      </trkpt>
      <trkpt lat="50.77549" lon="3.28839">
        <ele>58</ele>
        <time>2020-09-02T17:40:07Z</time>
      </trkpt>
      <trkpt lat="50.77531" lon="3.28858">
        <ele>57</ele>
        <time>2020-09-02T17:40:12Z</time>
      </trkpt>
      <trkpt lat="50.77531" lon="3.28919">
        <ele>56</ele>
        <time>2020-09-02T17:40:21Z</time>
      </trkpt>
      <trkpt lat="50.77499" lon="3.28957">
        <ele>54</ele>
        <time>2020-09-02T17:40:31Z</time>
      </trkpt>
      <trkpt lat="50.77524" lon="3.28998">
        <ele>55</ele>
        <time>2020-09-02T17:40:39Z</time>
      </trkpt>
      <trkpt lat="50.77549" lon="3.29012">
        <ele>55</ele>
        <time>2020-09-02T17:40:45Z</time>
      </trkpt>
      <trkpt lat="50.77546" lon="3.29041">
        <ele>54</ele>
        <time>2020-09-02T17:40:50Z</time>
      </trkpt>
      <trkpt lat="50.7756" lon="3.29074">
        <ele>53</ele>
        <time>2020-09-02T17:40:55Z</time>
      </trkpt>
      <trkpt lat="50.77588" lon="3.29044">
        <ele>55</ele>
        <time>2020-09-02T17:41:03Z</time>
      </trkpt>
      <trkpt lat="50.77595" lon="3.29033">
        <ele>55</ele>
        <time>2020-09-02T17:41:06Z</time>
      </trkpt>
      <trkpt lat="50.77599" lon="3.29008">
        <ele>56</ele>
        <time>2020-09-02T17:41:09Z</time>
      </trkpt>
      <trkpt lat="50.7764" lon="3.29014">
        <ele>57</ele>
        <time>2020-09-02T17:41:19Z</time>
      </trkpt>
      <trkpt lat="50.77643" lon="3.28994">
        <ele>58</ele>
        <time>2020-09-02T17:41:22Z</time>
      </trkpt>
      <trkpt lat="50.77629" lon="3.2896">
        <ele>58</ele>
        <time>2020-09-02T17:41:28Z</time>
      </trkpt>
      <trkpt lat="50.77603" lon="3.28948">
        <ele>58</ele>
        <time>2020-09-02T17:41:34Z</time>
      </trkpt>
      <trkpt lat="50.77603" lon="3.28938">
        <ele>58</ele>
        <time>2020-09-02T17:41:36Z</time>
      </trkpt>
      <trkpt lat="50.77551" lon="3.28836">
        <ele>58</ele>
        <time>2020-09-02T17:41:55Z</time>
      </trkpt>
      <trkpt lat="50.77587" lon="3.28724">
        <ele>60</ele>
        <time>2020-09-02T17:42:14Z</time>
      </trkpt>
      <trkpt lat="50.77667" lon="3.2864">
        <ele>59</ele>
        <time>2020-09-02T17:42:36Z</time>
      </trkpt>
      <trkpt lat="50.77748" lon="3.28566">
        <ele>59</ele>
        <time>2020-09-02T17:42:58Z</time>
      </trkpt>
      <trkpt lat="50.77742" lon="3.2845">
        <ele>60</ele>
        <time>2020-09-02T17:43:15Z</time>
      </trkpt>
      <trkpt lat="50.77739" lon="3.28368">
        <ele>62</ele>
        <time>2020-09-02T17:43:27Z</time>
      </trkpt>
      <trkpt lat="50.77747" lon="3.28316">
        <ele>64</ele>
        <time>2020-09-02T17:43:35Z</time>
      </trkpt>
      <trkpt lat="50.77778" lon="3.28301">
        <ele>66</ele>
        <time>2020-09-02T17:43:43Z</time>
      </trkpt>
      <trkpt lat="50.77812" lon="3.28258">
        <ele>68</ele>
        <time>2020-09-02T17:43:53Z</time>
      </trkpt>
      <trkpt lat="50.77804" lon="3.2822">
        <ele>68</ele>
        <time>2020-09-02T17:43:59Z</time>
      </trkpt>
      <trkpt lat="50.77807" lon="3.2819">
        <ele>67</ele>
        <time>2020-09-02T17:44:03Z</time>
      </trkpt>
      <trkpt lat="50.77805" lon="3.28085">
        <ele>67</ele>
        <time>2020-09-02T17:44:19Z</time>
      </trkpt>
      <trkpt lat="50.77858" lon="3.28086">
        <ele>66</ele>
        <time>2020-09-02T17:44:31Z</time>
      </trkpt>
      <trkpt lat="50.77873" lon="3.28203">
        <ele>67</ele>
        <time>2020-09-02T17:44:49Z</time>
      </trkpt>
      <trkpt lat="50.77908" lon="3.282">
        <ele>65</ele>
        <time>2020-09-02T17:44:57Z</time>
      </trkpt>
      <trkpt lat="50.77942" lon="3.28379">
        <ele>60</ele>
        <time>2020-09-02T17:45:25Z</time>
      </trkpt>
      <trkpt lat="50.78088" lon="3.28317">
        <ele>55</ele>
        <time>2020-09-02T17:46:00Z</time>
      </trkpt>
      <trkpt lat="50.78174" lon="3.28321">
        <ele>48</ele>
        <time>2020-09-02T17:46:20Z</time>
      </trkpt>
      <trkpt lat="50.78293" lon="3.28483">
        <ele>46</ele>
        <time>2020-09-02T17:46:57Z</time>
      </trkpt>
      <trkpt lat="50.78363" lon="3.28639">
        <ele>43</ele>
        <time>2020-09-02T17:47:25Z</time>
      </trkpt>
      <trkpt lat="50.78381" lon="3.28634">
        <ele>42</ele>
        <time>2020-09-02T17:47:29Z</time>
      </trkpt>
      <trkpt lat="50.78455" lon="3.28551">
        <ele>42</ele>
        <time>2020-09-02T17:47:50Z</time>
      </trkpt>
      <trkpt lat="50.78493" lon="3.28506">
        <ele>43</ele>
        <time>2020-09-02T17:48:02Z</time>
      </trkpt>
      <trkpt lat="50.78577" lon="3.28428">
        <ele>44</ele>
        <time>2020-09-02T17:48:24Z</time>
      </trkpt>
      <trkpt lat="50.78655" lon="3.28387">
        <ele>42</ele>
        <time>2020-09-02T17:48:44Z</time>
      </trkpt>
      <trkpt lat="50.78719" lon="3.28371">
        <ele>40</ele>
        <time>2020-09-02T17:48:59Z</time>
      </trkpt>
      <trkpt lat="50.7882" lon="3.28334">
        <ele>36</ele>
        <time>2020-09-02T17:49:23Z</time>
      </trkpt>
      <trkpt lat="50.78853" lon="3.28309">
        <ele>36</ele>
        <time>2020-09-02T17:49:31Z</time>
      </trkpt>
      <trkpt lat="50.78855" lon="3.28291">
        <ele>36</ele>
        <time>2020-09-02T17:49:34Z</time>
      </trkpt>
      <trkpt lat="50.78911" lon="3.28205">
        <ele>37</ele>
        <time>2020-09-02T17:49:52Z</time>
      </trkpt>
      <trkpt lat="50.78998" lon="3.28108">
        <ele>41</ele>
        <time>2020-09-02T17:50:17Z</time>
      </trkpt>
      <trkpt lat="50.7929" lon="3.2773">
        <ele>49</ele>
        <time>2020-09-02T17:51:45Z</time>
      </trkpt>
      <trkpt lat="50.79429" lon="3.27923">
        <ele>44</ele>
        <time>2020-09-02T17:52:28Z</time>
      </trkpt>
      <trkpt lat="50.79528" lon="3.27879">
        <ele>43</ele>
        <time>2020-09-02T17:52:53Z</time>
      </trkpt>
      <trkpt lat="50.79715" lon="3.27824">
        <ele>38</ele>
        <time>2020-09-02T17:53:37Z</time>
      </trkpt>
      <trkpt lat="50.79844" lon="3.27826">
        <ele>35</ele>
        <time>2020-09-02T17:54:07Z</time>
      </trkpt>
      <trkpt lat="50.79887" lon="3.2782">
        <ele>34</ele>
        <time>2020-09-02T17:54:17Z</time>
      </trkpt>
      <trkpt lat="50.8013" lon="3.27714">
        <ele>30</ele>
        <time>2020-09-02T17:55:16Z</time>
      </trkpt>
      <trkpt lat="50.801" lon="3.27553">
        <ele>29</ele>
        <time>2020-09-02T17:55:41Z</time>
      </trkpt>
      <trkpt lat="50.80191" lon="3.27461">
        <ele>26</ele>
        <time>2020-09-02T17:56:06Z</time>
      </trkpt>
      <trkpt lat="50.80121" lon="3.27297">
        <ele>28</ele>
        <time>2020-09-02T17:56:35Z</time>
      </trkpt>
      <trkpt lat="50.80092" lon="3.27188">
        <ele>30</ele>
        <time>2020-09-02T17:56:53Z</time>
      </trkpt>
      <trkpt lat="50.80087" lon="3.26937">
        <ele>29</ele>
        <time>2020-09-02T17:57:30Z</time>
      </trkpt>
      <trkpt lat="50.80171" lon="3.26948">
        <ele>27</ele>
        <time>2020-09-02T17:57:49Z</time>
      </trkpt>
      <trkpt lat="50.80246" lon="3.26912">
        <ele>27</ele>
        <time>2020-09-02T17:58:08Z</time>
      </trkpt>
      <trkpt lat="50.80326" lon="3.26742">
        <ele>26</ele>
        <time>2020-09-02T17:58:39Z</time>
      </trkpt>
      <trkpt lat="50.80453" lon="3.26405">
        <ele>23</ele>
        <time>2020-09-02T17:59:37Z</time>
      </trkpt>
      <trkpt lat="50.80537" lon="3.26305">
        <ele>25</ele>
        <time>2020-09-02T18:00:01Z</time>
      </trkpt>
      <trkpt lat="50.80529" lon="3.2625">
        <ele>25</ele>
        <time>2020-09-02T18:00:10Z</time>
      </trkpt>
      <trkpt lat="50.80618" lon="3.25997">
        <ele>25</ele>
        <time>2020-09-02T18:00:53Z</time>
      </trkpt>
      <trkpt lat="50.80565" lon="3.25934">
        <ele>24</ele>
        <time>2020-09-02T18:01:08Z</time>
      </trkpt>
      <trkpt lat="50.80462" lon="3.26132">
        <ele>23</ele>
        <time>2020-09-02T18:01:46Z</time>
      </trkpt>
      <trkpt lat="50.80231" lon="3.25614">
        <ele>31</ele>
        <time>2020-09-02T18:03:19Z</time>
      </trkpt>
      <trkpt lat="50.80145" lon="3.25697">
        <ele>30</ele>
        <time>2020-09-02T18:03:43Z</time>
      </trkpt>
      <trkpt lat="50.80461" lon="3.26391">
        <ele>23</ele>
        <time>2020-09-02T18:05:49Z</time>
      </trkpt>
      <trkpt lat="50.80449" lon="3.2639">
        <ele>23</ele>
        <time>2020-09-02T18:05:52Z</time>
      </trkpt>
      <trkpt lat="50.80372" lon="3.26258">
        <ele>22</ele>
        <time>2020-09-02T18:06:18Z</time>
      </trkpt>
      <trkpt lat="50.80331" lon="3.2624">
        <ele>22</ele>
        <time>2020-09-02T18:06:28Z</time>
      </trkpt>
      <trkpt lat="50.80303" lon="3.26151">
        <ele>23</ele>
        <time>2020-09-02T18:06:43Z</time>
      </trkpt>
      <trkpt lat="50.80273" lon="3.2611">
        <ele>23</ele>
        <time>2020-09-02T18:06:52Z</time>
      </trkpt>
      <trkpt lat="50.80241" lon="3.26059">
        <ele>25</ele>
        <time>2020-09-02T18:07:03Z</time>
      </trkpt>
      <trkpt lat="50.80207" lon="3.2604">
        <ele>25</ele>
        <time>2020-09-02T18:07:11Z</time>
      </trkpt>
      <trkpt lat="50.80198" lon="3.26018">
        <ele>25</ele>
        <time>2020-09-02T18:07:15Z</time>
      </trkpt>
      <trkpt lat="50.80162" lon="3.26058">
        <ele>24</ele>
        <time>2020-09-02T18:07:26Z</time>
      </trkpt>
      <trkpt lat="50.80096" lon="3.25979">
        <ele>26</ele>
        <time>2020-09-02T18:07:45Z</time>
      </trkpt>
      <trkpt lat="50.80021" lon="3.25805">
        <ele>29</ele>
        <time>2020-09-02T18:08:16Z</time>
      </trkpt>
      <trkpt lat="50.8" lon="3.25806">
        <ele>29</ele>
        <time>2020-09-02T18:08:21Z</time>
      </trkpt>
      <trkpt lat="50.7993" lon="3.25691">
        <ele>33</ele>
        <time>2020-09-02T18:08:44Z</time>
      </trkpt>
      <trkpt lat="50.79924" lon="3.25656">
        <ele>33</ele>
        <time>2020-09-02T18:08:50Z</time>
      </trkpt>
      <trkpt lat="50.79884" lon="3.25641">
        <ele>36</ele>
        <time>2020-09-02T18:08:59Z</time>
      </trkpt>
      <trkpt lat="50.79851" lon="3.25581">
        <ele>38</ele>
        <time>2020-09-02T18:09:11Z</time>
      </trkpt>
      <trkpt lat="50.79756" lon="3.25495">
        <ele>44</ele>
        <time>2020-09-02T18:09:37Z</time>
      </trkpt>
      <trkpt lat="50.7969" lon="3.25529">
        <ele>47</ele>
        <time>2020-09-02T18:09:53Z</time>
      </trkpt>
      <trkpt lat="50.79564" lon="3.25495">
        <ele>45</ele>
        <time>2020-09-02T18:10:23Z</time>
      </trkpt>
      <trkpt lat="50.79565" lon="3.25478">
        <ele>45</ele>
        <time>2020-09-02T18:10:25Z</time>
      </trkpt>
      <trkpt lat="50.79602" lon="3.25467">
        <ele>47</ele>
        <time>2020-09-02T18:10:34Z</time>
      </trkpt>
      <trkpt lat="50.7964" lon="3.2548">
        <ele>48</ele>
        <time>2020-09-02T18:10:43Z</time>
      </trkpt>
      <trkpt lat="50.79678" lon="3.255">
        <ele>48</ele>
        <time>2020-09-02T18:10:52Z</time>
      </trkpt>
      <trkpt lat="50.79688" lon="3.2548">
        <ele>48</ele>
        <time>2020-09-02T18:10:56Z</time>
      </trkpt>
      <trkpt lat="50.79688" lon="3.25436">
        <ele>48</ele>
        <time>2020-09-02T18:11:03Z</time>
      </trkpt>
      <trkpt lat="50.79683" lon="3.25402">
        <ele>48</ele>
        <time>2020-09-02T18:11:08Z</time>
      </trkpt>
      <trkpt lat="50.79667" lon="3.25375">
        <ele>46</ele>
        <time>2020-09-02T18:11:13Z</time>
      </trkpt>
      <trkpt lat="50.79615" lon="3.25398">
        <ele>47</ele>
        <time>2020-09-02T18:11:26Z</time>
      </trkpt>
      <trkpt lat="50.79608" lon="3.2544">
        <ele>48</ele>
        <time>2020-09-02T18:11:32Z</time>
      </trkpt>
      <trkpt lat="50.79749" lon="3.25418">
        <ele>45</ele>
        <time>2020-09-02T18:12:05Z</time>
      </trkpt>
      <trkpt lat="50.79853" lon="3.25413">
        <ele>38</ele>
        <time>2020-09-02T18:12:30Z</time>
      </trkpt>
      <trkpt lat="50.79891" lon="3.2546">
        <ele>38</ele>
        <time>2020-09-02T18:12:41Z</time>
      </trkpt>
      <trkpt lat="50.79888" lon="3.25518">
        <ele>38</ele>
        <time>2020-09-02T18:12:50Z</time>
      </trkpt>
      <trkpt lat="50.79799" lon="3.25652">
        <ele>40</ele>
        <time>2020-09-02T18:13:18Z</time>
      </trkpt>
      <trkpt lat="50.7977" lon="3.25647">
        <ele>41</ele>
        <time>2020-09-02T18:13:25Z</time>
      </trkpt>
      <trkpt lat="50.79676" lon="3.25694">
        <ele>40</ele>
        <time>2020-09-02T18:13:48Z</time>
      </trkpt>
      <trkpt lat="50.79644" lon="3.25643">
        <ele>43</ele>
        <time>2020-09-02T18:13:59Z</time>
      </trkpt>
      <trkpt lat="50.79607" lon="3.25572">
        <ele>44</ele>
        <time>2020-09-02T18:14:12Z</time>
      </trkpt>
      <trkpt lat="50.79579" lon="3.25525">
        <ele>45</ele>
        <time>2020-09-02T18:14:22Z</time>
      </trkpt>
      <trkpt lat="50.79548" lon="3.25511">
        <ele>43</ele>
        <time>2020-09-02T18:14:29Z</time>
      </trkpt>
      <trkpt lat="50.79619" lon="3.25497">
        <ele>47</ele>
        <time>2020-09-02T18:14:46Z</time>
      </trkpt>
      <trkpt lat="50.79693" lon="3.25512">
        <ele>47</ele>
        <time>2020-09-02T18:15:04Z</time>
      </trkpt>
      <trkpt lat="50.79707" lon="3.25462">
        <ele>47</ele>
        <time>2020-09-02T18:15:12Z</time>
      </trkpt>
      <trkpt lat="50.79706" lon="3.25315">
        <ele>39</ele>
        <time>2020-09-02T18:15:33Z</time>
      </trkpt>
      <trkpt lat="50.79696" lon="3.25198">
        <ele>33</ele>
        <time>2020-09-02T18:15:51Z</time>
      </trkpt>
      <trkpt lat="50.79633" lon="3.25113">
        <ele>32</ele>
        <time>2020-09-02T18:16:10Z</time>
      </trkpt>
      <trkpt lat="50.79568" lon="3.25055">
        <ele>32</ele>
        <time>2020-09-02T18:16:27Z</time>
      </trkpt>
      <trkpt lat="50.7948" lon="3.24954">
        <ele>34</ele>
        <time>2020-09-02T18:16:53Z</time>
      </trkpt>
      <trkpt lat="50.79472" lon="3.24938">
        <ele>34</ele>
        <time>2020-09-02T18:16:56Z</time>
      </trkpt>
      <trkpt lat="50.79476" lon="3.24681">
        <ele>33</ele>
        <time>2020-09-02T18:17:34Z</time>
      </trkpt>
      <trkpt lat="50.79434" lon="3.24474">
        <ele>38</ele>
        <time>2020-09-02T18:18:06Z</time>
      </trkpt>
      <trkpt lat="50.79441" lon="3.24434">
        <ele>38</ele>
        <time>2020-09-02T18:18:12Z</time>
      </trkpt>
      <trkpt lat="50.79417" lon="3.24216">
        <ele>41</ele>
        <time>2020-09-02T18:18:45Z</time>
      </trkpt>
      <trkpt lat="50.79165" lon="3.24926">
        <ele>43</ele>
        <time>2020-09-02T18:20:45Z</time>
      </trkpt>
      <trkpt lat="50.79241" lon="3.24931">
        <ele>38</ele>
        <time>2020-09-02T18:21:03Z</time>
      </trkpt>
      <trkpt lat="50.79194" lon="3.25033">
        <ele>40</ele>
        <time>2020-09-02T18:21:21Z</time>
      </trkpt>
      <trkpt lat="50.79208" lon="3.25063">
        <ele>39</ele>
        <time>2020-09-02T18:21:27Z</time>
      </trkpt>
      <trkpt lat="50.79147" lon="3.2528">
        <ele>38</ele>
        <time>2020-09-02T18:22:02Z</time>
      </trkpt>
      <trkpt lat="50.79329" lon="3.25641">
        <ele>37</ele>
        <time>2020-09-02T18:23:10Z</time>
      </trkpt>
      <trkpt lat="50.79303" lon="3.25683">
        <ele>39</ele>
        <time>2020-09-02T18:23:19Z</time>
      </trkpt>
      <trkpt lat="50.79381" lon="3.25785">
        <ele>42</ele>
        <time>2020-09-02T18:23:42Z</time>
      </trkpt>
      <trkpt lat="50.79361" lon="3.26294">
        <ele>51</ele>
        <time>2020-09-02T18:24:58Z</time>
      </trkpt>
      <trkpt lat="50.79347" lon="3.26355">
        <ele>52</ele>
        <time>2020-09-02T18:25:07Z</time>
      </trkpt>
      <trkpt lat="50.79299" lon="3.26447">
        <ele>50</ele>
        <time>2020-09-02T18:25:25Z</time>
      </trkpt>
      <trkpt lat="50.79395" lon="3.26576">
        <ele>45</ele>
        <time>2020-09-02T18:25:54Z</time>
      </trkpt>
      <trkpt lat="50.79607" lon="3.26958">
        <ele>38</ele>
        <time>2020-09-02T18:27:09Z</time>
      </trkpt>
      <trkpt lat="50.79516" lon="3.26989">
        <ele>38</ele>
        <time>2020-09-02T18:27:31Z</time>
      </trkpt>
      <trkpt lat="50.79455" lon="3.26985">
        <ele>38</ele>
        <time>2020-09-02T18:27:45Z</time>
      </trkpt>
      <trkpt lat="50.79222" lon="3.26959">
        <ele>46</ele>
        <time>2020-09-02T18:28:40Z</time>
      </trkpt>
      <trkpt lat="50.7908" lon="3.27043">
        <ele>50</ele>
        <time>2020-09-02T18:29:15Z</time>
      </trkpt>
      <trkpt lat="50.7904" lon="3.26943">
        <ele>48</ele>
        <time>2020-09-02T18:29:33Z</time>
      </trkpt>
      <trkpt lat="50.79057" lon="3.26885">
        <ele>48</ele>
        <time>2020-09-02T18:29:42Z</time>
      </trkpt>
      <trkpt lat="50.7903" lon="3.26864">
        <ele>48</ele>
        <time>2020-09-02T18:29:49Z</time>
      </trkpt>
      <trkpt lat="50.78872" lon="3.26888">
        <ele>49</ele>
        <time>2020-09-02T18:30:26Z</time>
      </trkpt>
      <trkpt lat="50.78666" lon="3.26811">
        <ele>54</ele>
        <time>2020-09-02T18:31:16Z</time>
      </trkpt>
      <trkpt lat="50.78392" lon="3.26935">
        <ele>51</ele>
        <time>2020-09-02T18:32:22Z</time>
      </trkpt>
      <trkpt lat="50.78548" lon="3.27448">
        <ele>44</ele>
        <time>2020-09-02T18:33:46Z</time>
      </trkpt>
      <trkpt lat="50.78457" lon="3.27506">
        <ele>43</ele>
        <time>2020-09-02T18:34:09Z</time>
      </trkpt>
      <trkpt lat="50.78429" lon="3.27511">
        <ele>44</ele>
        <time>2020-09-02T18:34:16Z</time>
      </trkpt>
      <trkpt lat="50.78549" lon="3.27799">
        <ele>41</ele>
        <time>2020-09-02T18:35:07Z</time>
      </trkpt>
      <trkpt lat="50.78583" lon="3.27794">
        <ele>41</ele>
        <time>2020-09-02T18:35:15Z</time>
      </trkpt>
      <trkpt lat="50.78705" lon="3.28002">
        <ele>38</ele>
        <time>2020-09-02T18:35:57Z</time>
      </trkpt>
      <trkpt lat="50.78823" lon="3.28319">
        <ele>36</ele>
        <time>2020-09-02T18:36:51Z</time>
      </trkpt>
      <trkpt lat="50.7872" lon="3.28374">
        <ele>40</ele>
        <time>2020-09-02T18:37:16Z</time>
      </trkpt>
      <trkpt lat="50.78788" lon="3.28569">
        <ele>38</ele>
        <time>2020-09-02T18:37:49Z</time>
      </trkpt>
      <trkpt lat="50.78822" lon="3.28621">
        <ele>38</ele>
        <time>2020-09-02T18:38:00Z</time>
      </trkpt>
      <trkpt lat="50.79" lon="3.28919">
        <ele>38</ele>
        <time>2020-09-02T18:39:01Z</time>
      </trkpt>
      <trkpt lat="50.79168" lon="3.29177">
        <ele>35</ele>
        <time>2020-09-02T18:39:55Z</time>
      </trkpt>
      <trkpt lat="50.78732" lon="3.29564">
        <ele>31</ele>
        <time>2020-09-02T18:41:52Z</time>
      </trkpt>
      <trkpt lat="50.78817" lon="3.29697">
        <ele>29</ele>
        <time>2020-09-02T18:42:20Z</time>
      </trkpt>
      <trkpt lat="50.78828" lon="3.29756">
        <ele>29</ele>
        <time>2020-09-02T18:42:29Z</time>
      </trkpt>
      <trkpt lat="50.78917" lon="3.29975">
        <ele>28</ele>
        <time>2020-09-02T18:43:08Z</time>
      </trkpt>
      <trkpt lat="50.79031" lon="3.30242">
        <ele>29</ele>
        <time>2020-09-02T18:43:55Z</time>
      </trkpt>
      <trkpt lat="50.79137" lon="3.3034">
        <ele>25</ele>
        <time>2020-09-02T18:44:24Z</time>
      </trkpt>
      <trkpt lat="50.79135" lon="3.30346">
        <ele>25</ele>
        <time>2020-09-02T18:44:25Z</time>
      </trkpt>
      <trkpt lat="50.79222" lon="3.30562">
        <ele>24</ele>
        <time>2020-09-02T18:45:03Z</time>
      </trkpt>
      <trkpt lat="50.79342" lon="3.30697">
        <ele>23</ele>
        <time>2020-09-02T18:45:37Z</time>
      </trkpt>
      <trkpt lat="50.79331" lon="3.30717">
        <ele>23</ele>
        <time>2020-09-02T18:45:41Z</time>
      </trkpt>
      <trkpt lat="50.79428" lon="3.30836">
        <ele>27</ele>
        <time>2020-09-02T18:46:10Z</time>
      </trkpt>
      <trkpt lat="50.79686" lon="3.31094">
        <ele>21</ele>
        <time>2020-09-02T18:47:21Z</time>
      </trkpt>
      <trkpt lat="50.79865" lon="3.31224">
        <ele>21</ele>
        <time>2020-09-02T18:48:07Z</time>
      </trkpt>
      <trkpt lat="50.80702" lon="3.32535">
        <ele>16</ele>
        <time>2020-09-02T18:52:42Z</time>
      </trkpt>
      <trkpt lat="50.80678" lon="3.32423">
        <ele>17</ele>
        <time>2020-09-02T18:52:59Z</time>
      </trkpt>
      <trkpt lat="50.8078" lon="3.3224">
        <ele>18</ele>
        <time>2020-09-02T18:53:35Z</time>
      </trkpt>
      <trkpt lat="50.80778" lon="3.32196">
        <ele>18</ele>
        <time>2020-09-02T18:53:42Z</time>
      </trkpt>
      <trkpt lat="50.80866" lon="3.32011">
        <ele>19</ele>
        <time>2020-09-02T18:54:16Z</time>
      </trkpt>
      <trkpt lat="50.8103" lon="3.32201">
        <ele>20</ele>
        <time>2020-09-02T18:55:03Z</time>
      </trkpt>
      <trkpt lat="50.80995" lon="3.32239">
        <ele>18</ele>
        <time>2020-09-02T18:55:13Z</time>
      </trkpt>
      <trkpt lat="50.80929" lon="3.32426">
        <ele>15</ele>
        <time>2020-09-02T18:55:45Z</time>
      </trkpt>
      <trkpt lat="50.81018" lon="3.32507">
        <ele>16</ele>
        <time>2020-09-02T18:56:09Z</time>
      </trkpt>
      <trkpt lat="50.81018" lon="3.32578">
        <ele>17</ele>
        <time>2020-09-02T18:56:19Z</time>
      </trkpt>
      <trkpt lat="50.81086" lon="3.32716">
        <ele>19</ele>
        <time>2020-09-02T18:56:45Z</time>
      </trkpt>
      <trkpt lat="50.81107" lon="3.32713">
        <ele>19</ele>
        <time>2020-09-02T18:56:50Z</time>
      </trkpt>
      <trkpt lat="50.81204" lon="3.32826">
        <ele>19</ele>
        <time>2020-09-02T18:57:18Z</time>
      </trkpt>
      <trkpt lat="50.81227" lon="3.3282">
        <ele>19</ele>
        <time>2020-09-02T18:57:24Z</time>
      </trkpt>
      <trkpt lat="50.81275" lon="3.32901">
        <ele>19</ele>
        <time>2020-09-02T18:57:40Z</time>
      </trkpt>
      <trkpt lat="50.81285" lon="3.3298">
        <ele>18</ele>
        <time>2020-09-02T18:57:52Z</time>
      </trkpt>
      <trkpt lat="50.81265" lon="3.33074">
        <ele>21</ele>
        <time>2020-09-02T18:58:07Z</time>
      </trkpt>
      <trkpt lat="50.81295" lon="3.33278">
        <ele>25</ele>
        <time>2020-09-02T18:58:38Z</time>
      </trkpt>
      <trkpt lat="50.81266" lon="3.33325">
        <ele>26</ele>
        <time>2020-09-02T18:58:47Z</time>
      </trkpt>
      <trkpt lat="50.81283" lon="3.33457">
        <ele>27</ele>
        <time>2020-09-02T18:59:07Z</time>
      </trkpt>
      <trkpt lat="50.81272" lon="3.33657">
        <ele>28</ele>
        <time>2020-09-02T18:59:37Z</time>
      </trkpt>
      <trkpt lat="50.814" lon="3.34158">
        <ele>28</ele>
        <time>2020-09-02T19:00:57Z</time>
      </trkpt>
      <trkpt lat="50.81451" lon="3.3434">
        <ele>28</ele>
        <time>2020-09-02T19:01:26Z</time>
      </trkpt>
      <trkpt lat="50.81314" lon="3.34564">
        <ele>29</ele>
        <time>2020-09-02T19:02:12Z</time>
      </trkpt>
      <trkpt lat="50.81168" lon="3.34796">
        <ele>23</ele>
        <time>2020-09-02T19:03:00Z</time>
      </trkpt>
      <trkpt lat="50.81125" lon="3.34851">
        <ele>22</ele>
        <time>2020-09-02T19:03:13Z</time>
      </trkpt>
      <trkpt lat="50.80986" lon="3.35018">
        <ele>20</ele>
        <time>2020-09-02T19:03:54Z</time>
      </trkpt>
      <trkpt lat="50.80809" lon="3.35221">
        <ele>19</ele>
        <time>2020-09-02T19:04:45Z</time>
      </trkpt>
      <trkpt lat="50.80772" lon="3.35256">
        <ele>18</ele>
        <time>2020-09-02T19:04:55Z</time>
      </trkpt>
      <trkpt lat="50.80434" lon="3.35646">
        <ele>22</ele>
        <time>2020-09-02T19:06:33Z</time>
      </trkpt>
      <trkpt lat="50.80265" lon="3.35925">
        <ele>23</ele>
        <time>2020-09-02T19:07:30Z</time>
      </trkpt>
      <trkpt lat="50.80089" lon="3.36184">
        <ele>28</ele>
        <time>2020-09-02T19:08:26Z</time>
      </trkpt>
      <trkpt lat="50.80007" lon="3.36267">
        <ele>28</ele>
        <time>2020-09-02T19:08:49Z</time>
      </trkpt>
      <trkpt lat="50.7985" lon="3.36375">
        <ele>30</ele>
        <time>2020-09-02T19:09:29Z</time>
      </trkpt>
      <trkpt lat="50.79836" lon="3.36371">
        <ele>30</ele>
        <time>2020-09-02T19:09:32Z</time>
      </trkpt>
      <trkpt lat="50.79326" lon="3.36761">
        <ele>33</ele>
        <time>2020-09-02T19:11:44Z</time>
      </trkpt>
      <trkpt lat="50.79081" lon="3.36945">
        <ele>36</ele>
        <time>2020-09-02T19:12:48Z</time>
      </trkpt>
      <trkpt lat="50.78922" lon="3.37139">
        <ele>38</ele>
        <time>2020-09-02T19:13:34Z</time>
      </trkpt>
      <trkpt lat="50.78544" lon="3.37407">
        <ele>32</ele>
        <time>2020-09-02T19:15:11Z</time>
      </trkpt>
      <trkpt lat="50.78417" lon="3.36735">
        <ele>40</ele>
        <time>2020-09-02T19:16:55Z</time>
      </trkpt>
      <trkpt lat="50.78367" lon="3.36804">
        <ele>38</ele>
        <time>2020-09-02T19:17:10Z</time>
      </trkpt>
      <trkpt lat="50.78242" lon="3.36487">
        <ele>42</ele>
        <time>2020-09-02T19:18:05Z</time>
      </trkpt>
      <trkpt lat="50.78278" lon="3.3633">
        <ele>48</ele>
        <time>2020-09-02T19:18:30Z</time>
      </trkpt>
      <trkpt lat="50.78051" lon="3.3643">
        <ele>42</ele>
        <time>2020-09-02T19:19:25Z</time>
      </trkpt>
      <trkpt lat="50.78009" lon="3.36446">
        <ele>41</ele>
        <time>2020-09-02T19:19:35Z</time>
      </trkpt>
      <trkpt lat="50.77976" lon="3.36191">
        <ele>45</ele>
        <time>2020-09-02T19:20:14Z</time>
      </trkpt>
      <trkpt lat="50.77844" lon="3.36254">
        <ele>42</ele>
        <time>2020-09-02T19:20:46Z</time>
      </trkpt>
      <trkpt lat="50.77803" lon="3.36413">
        <ele>39</ele>
        <time>2020-09-02T19:21:11Z</time>
      </trkpt>
      <trkpt lat="50.77771" lon="3.36552">
        <ele>34</ele>
        <time>2020-09-02T19:21:33Z</time>
      </trkpt>
      <trkpt lat="50.77645" lon="3.36595">
        <ele>27</ele>
        <time>2020-09-02T19:22:03Z</time>
      </trkpt>
      <trkpt lat="50.77561" lon="3.36682">
        <ele>26</ele>
        <time>2020-09-02T19:22:27Z</time>
      </trkpt>
      <trkpt lat="50.77514" lon="3.3681">
        <ele>25</ele>
        <time>2020-09-02T19:22:48Z</time>
      </trkpt>
      <trkpt lat="50.77368" lon="3.36976">
        <ele>25</ele>
        <time>2020-09-02T19:23:30Z</time>
      </trkpt>
      <trkpt lat="50.77176" lon="3.36672">
        <ele>38</ele>
        <time>2020-09-02T19:24:34Z</time>
      </trkpt>
      <trkpt lat="50.77013" lon="3.36887">
        <ele>33</ele>
        <time>2020-09-02T19:25:23Z</time>
      </trkpt>
      <trkpt lat="50.76986" lon="3.36865">
        <ele>34</ele>
        <time>2020-09-02T19:25:31Z</time>
      </trkpt>
      <trkpt lat="50.76866" lon="3.37028">
        <ele>35</ele>
        <time>2020-09-02T19:26:07Z</time>
      </trkpt>
      <trkpt lat="50.76764" lon="3.36745">
        <ele>39</ele>
        <time>2020-09-02T19:26:56Z</time>
      </trkpt>
      <trkpt lat="50.76713" lon="3.36672">
        <ele>41</ele>
        <time>2020-09-02T19:27:12Z</time>
      </trkpt>
      <trkpt lat="50.76648" lon="3.36696">
        <ele>43</ele>
        <time>2020-09-02T19:27:27Z</time>
      </trkpt>
      <trkpt lat="50.766" lon="3.36625">
        <ele>45</ele>
        <time>2020-09-02T19:27:43Z</time>
      </trkpt>
      <trkpt lat="50.76482" lon="3.36674">
        <ele>47</ele>
        <time>2020-09-02T19:28:11Z</time>
      </trkpt>
      <trkpt lat="50.76429" lon="3.36576">
        <ele>51</ele>
        <time>2020-09-02T19:28:30Z</time>
      </trkpt>
      <trkpt lat="50.76373" lon="3.36556">
        <ele>50</ele>
        <time>2020-09-02T19:28:44Z</time>
      </trkpt>
      <trkpt lat="50.76178" lon="3.36376">
        <ele>46</ele>
        <time>2020-09-02T19:29:36Z</time>
      </trkpt>
      <trkpt lat="50.76293" lon="3.36196">
        <ele>43</ele>
        <time>2020-09-02T19:30:14Z</time>
      </trkpt>
      <trkpt lat="50.76199" lon="3.36028">
        <ele>39</ele>
        <time>2020-09-02T19:30:47Z</time>
      </trkpt>
      <trkpt lat="50.75989" lon="3.36353">
        <ele>47</ele>
        <time>2020-09-02T19:31:56Z</time>
      </trkpt>
      <trkpt lat="50.75657" lon="3.36469">
        <ele>45</ele>
        <time>2020-09-02T19:33:15Z</time>
      </trkpt>
      <trkpt lat="50.75652" lon="3.36267">
        <ele>44</ele>
        <time>2020-09-02T19:33:45Z</time>
      </trkpt>
      <trkpt lat="50.75716" lon="3.36104">
        <ele>49</ele>
        <time>2020-09-02T19:34:13Z</time>
      </trkpt>
      <trkpt lat="50.75825" lon="3.35942">
        <ele>46</ele>
        <time>2020-09-02T19:34:48Z</time>
      </trkpt>
      <trkpt lat="50.75761" lon="3.3587">
        <ele>44</ele>
        <time>2020-09-02T19:35:07Z</time>
      </trkpt>
      <trkpt lat="50.75803" lon="3.35779">
        <ele>39</ele>
        <time>2020-09-02T19:35:23Z</time>
      </trkpt>
      <trkpt lat="50.75707" lon="3.35649">
        <ele>36</ele>
        <time>2020-09-02T19:35:53Z</time>
      </trkpt>
      <trkpt lat="50.7558" lon="3.35912">
        <ele>45</ele>
        <time>2020-09-02T19:36:42Z</time>
      </trkpt>
      <trkpt lat="50.75275" lon="3.35636">
        <ele>45</ele>
        <time>2020-09-02T19:38:04Z</time>
      </trkpt>
      <trkpt lat="50.75083" lon="3.35338">
        <ele>43</ele>
        <time>2020-09-02T19:39:07Z</time>
      </trkpt>
      <trkpt lat="50.75334" lon="3.35114">
        <ele>30</ele>
        <time>2020-09-02T19:40:14Z</time>
      </trkpt>
      <trkpt lat="50.74897" lon="3.34384">
        <ele>34</ele>
        <time>2020-09-02T19:42:42Z</time>
      </trkpt>
      <trkpt lat="50.74688" lon="3.34534">
        <ele>29</ele>
        <time>2020-09-02T19:43:36Z</time>
      </trkpt>
      <trkpt lat="50.74367" lon="3.34059">
        <ele>15</ele>
        <time>2020-09-02T19:45:19Z</time>
      </trkpt>
      <trkpt lat="50.74113" lon="3.33837">
        <ele>15</ele>
        <time>2020-09-02T19:46:27Z</time>
      </trkpt>
      <trkpt lat="50.74225" lon="3.33647">
        <ele>17</ele>
        <time>2020-09-02T19:47:05Z</time>
      </trkpt>
      <trkpt lat="50.7413" lon="3.33428">
        <ele>17</ele>
        <time>2020-09-02T19:47:44Z</time>
      </trkpt>
      <trkpt lat="50.74169" lon="3.33378">
        <ele>18</ele>
        <time>2020-09-02T19:47:56Z</time>
      </trkpt>
      <trkpt lat="50.73988" lon="3.33115">
        <ele>20</ele>
        <time>2020-09-02T19:48:53Z</time>
      </trkpt>
      <trkpt lat="50.73853" lon="3.33385">
        <ele>18</ele>
        <time>2020-09-02T19:49:44Z</time>
      </trkpt>
      <trkpt lat="50.73646" lon="3.33256">
        <ele>14</ele>
        <time>2020-09-02T19:50:36Z</time>
      </trkpt>
      <trkpt lat="50.73444" lon="3.33219">
        <ele>14</ele>
        <time>2020-09-02T19:51:24Z</time>
      </trkpt>
      <trkpt lat="50.7339" lon="3.33323">
        <ele>13</ele>
        <time>2020-09-02T19:51:43Z</time>
      </trkpt>
      <trkpt lat="50.73165" lon="3.3292">
        <ele>14</ele>
        <time>2020-09-02T19:53:03Z</time>
      </trkpt>
      <trkpt lat="50.7293" lon="3.32936">
        <ele>16</ele>
        <time>2020-09-02T19:53:58Z</time>
      </trkpt>
      <trkpt lat="50.72997" lon="3.31991">
        <ele>16</ele>
        <time>2020-09-02T19:56:18Z</time>
      </trkpt>
      <trkpt lat="50.72915" lon="3.3136">
        <ele>26</ele>
        <time>2020-09-02T19:57:54Z</time>
      </trkpt>
      <trkpt lat="50.73039" lon="3.31176">
        <ele>27</ele>
        <time>2020-09-02T19:58:33Z</time>
      </trkpt>
      <trkpt lat="50.72942" lon="3.31036">
        <ele>26</ele>
        <time>2020-09-02T19:59:04Z</time>
      </trkpt>
      <trkpt lat="50.73011" lon="3.30941">
        <ele>28</ele>
        <time>2020-09-02T19:59:25Z</time>
      </trkpt>
      <trkpt lat="50.72868" lon="3.30562">
        <ele>30</ele>
        <time>2020-09-02T20:00:31Z</time>
      </trkpt>
    </trkseg>
  </trk>
</gpx>